KPMH/PMH METAR and TAF weather

Enter ICAO airport designator
Station Type Date Time Source
KPMH METAR 2018/12/19 09:15 UTC NOAA

KPMH 190915Z AUTO 00000KT 10SM CLR M05/M05 A3010 RMK AO2 T10511051


Station Type Date Time Source
KPMH Decoded METAR 2018/12/19 09:15 UTC NOAA

Station name not available
Dec 19, 2018 - 04:15 AM EST / 2018.12.19 0915 UTC
Wind: Calm:0
Visibility: 10 mile(s):0
Sky conditions: clear
Temperature: 22.8 F (-5.1 C)
Dew Point: 22.8 F (-5.1 C)
Relative Humidity: 100%
Pressure (altimeter): 30.1 in. Hg (1019 hPa)
ob: KPMH 190915Z AUTO 00000KT 10SM CLR M05/M05 A3010 RMK AO2 T10511051
cycle: 9

Station Type Date Time Source
KPMH TAF UTC NOAA

Error!


Example: see airport list